sensor_id;sensor_type;location;lat;lon;timestamp;pressure;altitude;pressure_sealevel;temperature;humidity
66681;BME280;53575;51.366;12.350;2023-08-08T00:01:57;100033.44;;;12.37;100.00
66681;BME280;53575;51.366;12.350;2023-08-08T00:04:22;100030.63;;;12.47;99.69
66681;BME280;53575;51.366;12.350;2023-08-08T00:06:48;100034.09;;;12.47;99.61
66681;BME280;53575;51.366;12.350;2023-08-08T00:09:13;100022.09;;;12.37;100.00
66681;BME280;53575;51.366;12.350;2023-08-08T00:11:38;100034.34;;;12.35;100.00
66681;BME280;53575;51.366;12.350;2023-08-08T00:14:04;100034.25;;;12.41;100.00
66681;BME280;53575;51.366;12.350;2023-08-08T00:16:29;100026.31;;;12.44;99.51
66681;BME280;53575;51.366;12.350;2023-08-08T00:18:55;100025.47;;;12.42;99.59
66681;BME280;53575;51.366;12.350;2023-08-08T00:21:20;100023.00;;;12.34;99.63
66681;BME280;53575;51.366;12.350;2023-08-08T00:23:46;100023.09;;;12.30;99.68
66681;BME280;53575;51.366;12.350;2023-08-08T00:26:12;100017.84;;;12.30;99.81
66681;BME280;53575;51.366;12.350;2023-08-08T00:28:37;100022.97;;;12.36;99.19
66681;BME280;53575;51.366;12.350;2023-08-08T00:31:03;100022.00;;;12.40;98.97
66681;BME280;53575;51.366;12.350;2023-08-08T00:33:28;100023.75;;;12.39;98.68
66681;BME280;53575;51.366;12.350;2023-08-08T00:35:54;100028.06;;;12.43;98.55
66681;BME280;53575;51.366;12.350;2023-08-08T00:38:19;100024.72;;;12.37;98.58
66681;BME280;53575;51.366;12.350;2023-08-08T00:40:45;100030.94;;;12.30;99.19
66681;BME280;53575;51.366;12.350;2023-08-08T00:43:10;100028.38;;;12.27;99.07
66681;BME280;53575;51.366;12.350;2023-08-08T00:45:36;100024.91;;;12.26;99.40
66681;BME280;53575;51.366;12.350;2023-08-08T00:48:02;100021.41;;;12.24;99.44
66681;BME280;53575;51.366;12.350;2023-08-08T00:50:28;100026.63;;;12.27;99.05
66681;BME280;53575;51.366;12.350;2023-08-08T00:52:54;100022.16;;;12.32;99.04
66681;BME280;53575;51.366;12.350;2023-08-08T00:55:20;100024.97;;;12.22;99.95
66681;BME280;53575;51.366;12.350;2023-08-08T00:57:46;100020.00;;;12.06;100.00
66681;BME280;53575;51.366;12.350;2023-08-08T01:00:12;100017.38;;;12.05;100.00
66681;BME280;53575;51.366;12.350;2023-08-08T01:02:38;100019.19;;;12.01;100.00
66681;BME280;53575;51.366;12.350;2023-08-08T01:05:04;100020.06;;;12.02;100.00
66681;BME280;53575;51.366;12.350;2023-08-08T01:07:45;100018.25;;;12.05;100.00
66681;BME280;53575;51.366;12.350;2023-08-08T01:10:15;100011.38;;;12.00;99.95
66681;BME280;53575;51.366;12.350;2023-08-08T01:12:46;100007.91;;;11.98;100.00
66681;BME280;53575;51.366;12.350;2023-08-08T01:15:13;100002.63;;;12.02;99.94
66681;BME280;53575;51.366;12.350;2023-08-08T01:17:39;99995.66;;;12.00;100.00
66681;BME280;53575;51.366;12.350;2023-08-08T01:20:07;99991.28;;;12.00;99.79
66681;BME280;53575;51.366;12.350;2023-08-08T01:22:40;99995.84;;;11.89;100.00
66681;BME280;53575;51.366;12.350;2023-08-08T01:25:08;99988.97;;;11.79;100.00
66681;BME280;53575;51.366;12.350;2023-08-08T01:27:34;99993.25;;;11.86;100.00
66681;BME280;53575;51.366;12.350;2023-08-08T01:30:00;99989.81;;;11.84;100.00
66681;BME280;53575;51.366;12.350;2023-08-08T01:32:25;99990.63;;;11.87;100.00
66681;BME280;53575;51.366;12.350;2023-08-08T01:34:51;99984.34;;;11.99;100.00
66681;BME280;53575;51.366;12.350;2023-08-08T01:37:36;99987.09;;;11.91;99.94
66681;BME280;53575;51.366;12.350;2023-08-08T01:40:05;100003.75;;;11.83;100.00
66681;BME280;53575;51.366;12.350;2023-08-08T01:42:31;100004.59;;;11.86;100.00
66681;BME280;53575;51.366;12.350;2023-08-08T01:44:57;99994.19;;;11.82;100.00
66681;BME280;53575;51.366;12.350;2023-08-08T01:47:23;99998.53;;;11.84;99.86
66681;BME280;53575;51.366;12.350;2023-08-08T01:49:48;99998.59;;;11.80;99.91
66681;BME280;53575;51.366;12.350;2023-08-08T01:52:13;99993.28;;;11.83;99.53
66681;BME280;53575;51.366;12.350;2023-08-08T01:54:39;99988.16;;;11.75;100.00
66681;BME280;53575;51.366;12.350;2023-08-08T01:57:04;99991.59;;;11.83;99.62
66681;BME280;53575;51.366;12.350;2023-08-08T01:59:30;99997.66;;;11.85;99.36
66681;BME280;53575;51.366;12.350;2023-08-08T02:01:55;99986.22;;;11.91;98.87
66681;BME280;53575;51.366;12.350;2023-08-08T02:04:21;99991.53;;;11.85;98.83
66681;BME280;53575;51.366;12.350;2023-08-08T02:06:46;99983.59;;;11.91;98.05
66681;BME280;53575;51.366;12.350;2023-08-08T02:09:11;99977.56;;;11.86;98.96
66681;BME280;53575;51.366;12.350;2023-08-08T02:11:39;99974.00;;;11.90;98.47
66681;BME280;53575;51.366;12.350;2023-08-08T02:14:05;99973.00;;;11.97;97.91
66681;BME280;53575;51.366;12.350;2023-08-08T02:16:30;99968.72;;;11.94;98.08
66681;BME280;53575;51.366;12.350;2023-08-08T02:18:55;99968.84;;;11.87;98.34
66681;BME280;53575;51.366;12.350;2023-08-08T02:21:21;99974.00;;;11.90;98.14
66681;BME280;53575;51.366;12.350;2023-08-08T02:23:46;99962.47;;;12.00;97.67
66681;BME280;53575;51.366;12.350;2023-08-08T02:26:11;99960.75;;;11.99;97.08
66681;BME280;53575;51.366;12.350;2023-08-08T02:28:37;99964.34;;;11.93;97.89
66681;BME280;53575;51.366;12.350;2023-08-08T02:31:02;99972.19;;;11.93;97.40
66681;BME280;53575;51.366;12.350;2023-08-08T02:33:28;99962.69;;;11.88;97.90
66681;BME280;53575;51.366;12.350;2023-08-08T02:35:53;99968.75;;;11.91;98.05
66681;BME280;53575;51.366;12.350;2023-08-08T02:38:18;99973.06;;;11.94;97.46
66681;BME280;53575;51.366;12.350;2023-08-08T02:40:44;99967.00;;;11.92;97.91
66681;BME280;53575;51.366;12.350;2023-08-08T02:43:09;99962.56;;;11.94;97.70
66681;BME280;53575;51.366;12.350;2023-08-08T02:45:36;99967.81;;;11.94;97.47
66681;BME280;53575;51.366;12.350;2023-08-08T02:48:01;99967.84;;;11.92;97.83
66681;BME280;53575;51.366;12.350;2023-08-08T02:50:26;99965.19;;;11.94;98.34
66681;BME280;53575;51.366;12.350;2023-08-08T02:52:52;99960.94;;;11.88;98.52
66681;BME280;53575;51.366;12.350;2023-08-08T02:55:17;99962.66;;;11.91;97.89
66681;BME280;53575;51.366;12.350;2023-08-08T02:57:43;99958.28;;;11.91;98.05
66681;BME280;53575;51.366;12.350;2023-08-08T03:00:08;99960.16;;;11.83;98.57
66681;BME280;53575;51.366;12.350;2023-08-08T03:02:35;99959.25;;;11.83;98.67
66681;BME280;53575;51.366;12.350;2023-08-08T03:05:01;99968.88;;;11.84;98.66
66681;BME280;53575;51.366;12.350;2023-08-08T03:07:26;99960.91;;;11.90;98.11
66681;BME280;53575;51.366;12.350;2023-08-08T03:09:51;99968.88;;;11.84;98.91
66681;BME280;53575;51.366;12.350;2023-08-08T03:12:17;99968.00;;;11.82;98.87
66681;BME280;53575;51.366;12.350;2023-08-08T03:14:42;99967.94;;;11.88;98.39
66681;BME280;53575;51.366;12.350;2023-08-08T03:17:07;99970.56;;;11.88;97.86
66681;BME280;53575;51.366;12.350;2023-08-08T03:19:33;99972.34;;;11.84;98.74
66681;BME280;53575;51.366;12.350;2023-08-08T03:21:58;99977.47;;;11.90;98.06
66681;BME280;53575;51.366;12.350;2023-08-08T03:24:24;99969.56;;;11.93;97.96
66681;BME280;53575;51.366;12.350;2023-08-08T03:26:49;99960.09;;;11.88;98.30
66681;BME280;53575;51.366;12.350;2023-08-08T03:29:14;99965.31;;;11.86;98.91
66681;BME280;53575;51.366;12.350;2023-08-08T03:31:40;99966.19;;;11.88;98.71
66681;BME280;53575;51.366;12.350;2023-08-08T03:34:05;99964.47;;;11.87;98.69
66681;BME280;53575;51.366;12.350;2023-08-08T03:36:31;99965.22;;;11.92;98.81
66681;BME280;53575;51.366;12.350;2023-08-08T03:38:56;99963.56;;;11.88;99.03
66681;BME280;53575;51.366;12.350;2023-08-08T03:41:21;99961.84;;;11.83;99.09
66681;BME280;53575;51.366;12.350;2023-08-08T03:43:47;99964.47;;;11.86;99.48
66681;BME280;53575;51.366;12.350;2023-08-08T03:46:12;99959.25;;;11.83;99.42
66681;BME280;53575;51.366;12.350;2023-08-08T03:48:38;99963.53;;;11.90;99.13
66681;BME280;53575;51.366;12.350;2023-08-08T03:51:04;99961.75;;;11.90;99.05
66681;BME280;53575;51.366;12.350;2023-08-08T03:53:29;99964.47;;;11.87;99.37
66681;BME280;53575;51.366;12.350;2023-08-08T03:55:55;99965.31;;;11.86;99.36
66681;BME280;53575;51.366;12.350;2023-08-08T03:58:22;99963.69;;;11.78;99.98
66681;BME280;53575;51.366;12.350;2023-08-08T04:00:47;99957.47;;;11.86;100.00
66681;BME280;53575;51.366;12.350;2023-08-08T04:03:13;99957.34;;;11.94;99.54
66681;BME280;53575;51.366;12.350;2023-08-08T04:05:40;99973.78;;;12.04;98.60
66681;BME280;53575;51.366;12.350;2023-08-08T04:08:06;99961.38;;;12.13;97.92
66681;BME280;53575;51.366;12.350;2023-08-08T04:10:31;99956.91;;;12.18;98.09
66681;BME280;53575;51.366;12.350;2023-08-08T04:12:57;99953.28;;;12.26;97.53
66681;BME280;53575;51.366;12.350;2023-08-08T04:15:22;99959.34;;;12.28;97.51
66681;BME280;53575;51.366;12.350;2023-08-08T04:17:47;99953.16;;;12.32;97.32
66681;BME280;53575;51.366;12.350;2023-08-08T04:20:13;99966.25;;;12.33;97.18
66681;BME280;53575;51.366;12.350;2023-08-08T04:22:39;99961.81;;;12.37;97.29
66681;BME280;53575;51.366;12.350;2023-08-08T04:25:05;99960.69;;;12.50;96.38
66681;BME280;53575;51.366;12.350;2023-08-08T04:27:31;99960.41;;;12.64;94.77
66681;BME280;53575;51.366;12.350;2023-08-08T04:29:56;99952.50;;;12.67;94.97
66681;BME280;53575;51.366;12.350;2023-08-08T04:32:22;99960.31;;;12.68;94.84
66681;BME280;53575;51.366;12.350;2023-08-08T04:34:47;99964.72;;;12.66;95.17
66681;BME280;53575;51.366;12.350;2023-08-08T04:37:12;99952.38;;;12.72;94.80
66681;BME280;53575;51.366;12.350;2023-08-08T04:39:38;99962.72;;;12.78;94.41
66681;BME280;53575;51.366;12.350;2023-08-08T04:42:03;99962.66;;;12.82;94.49
66681;BME280;53575;51.366;12.350;2023-08-08T04:44:29;99956.47;;;12.85;94.10
66681;BME280;53575;51.366;12.350;2023-08-08T04:46:55;99958.94;;;12.92;93.67
66681;BME280;53575;51.366;12.350;2023-08-08T04:49:20;99949.28;;;12.95;93.34
66681;BME280;53575;51.366;12.350;2023-08-08T04:51:46;99951.91;;;12.95;93.65
66681;BME280;53575;51.366;12.350;2023-08-08T04:54:11;99953.47;;;13.03;92.62
66681;BME280;53575;51.366;12.350;2023-08-08T04:56:36;99960.50;;;13.01;93.12
66681;BME280;53575;51.366;12.350;2023-08-08T04:59:02;99957.72;;;13.09;92.41
66681;BME280;53575;51.366;12.350;2023-08-08T05:01:27;99956.81;;;13.08;92.96
66681;BME280;53575;51.366;12.350;2023-08-08T05:03:53;99962.22;;;13.02;93.11
66681;BME280;53575;51.366;12.350;2023-08-08T05:06:18;99955.13;;;13.07;92.87
66681;BME280;53575;51.366;12.350;2023-08-08T05:08:44;99958.69;;;13.03;92.94
66681;BME280;53575;51.366;12.350;2023-08-08T05:11:09;99963.09;;;13.03;93.14
66681;BME280;53575;51.366;12.350;2023-08-08T05:13:35;99951.47;;;13.14;92.92
66681;BME280;53575;51.366;12.350;2023-08-08T05:16:00;99960.25;;;13.12;92.75
66681;BME280;53575;51.366;12.350;2023-08-08T05:18:26;99956.69;;;13.14;92.09
66681;BME280;53575;51.366;12.350;2023-08-08T05:20:51;99951.47;;;13.14;92.25
66681;BME280;53575;51.366;12.350;2023-08-08T05:23:16;99946.16;;;13.16;92.12
66681;BME280;53575;51.366;12.350;2023-08-08T05:25:42;99960.34;;;13.09;92.22
66681;BME280;53575;51.366;12.350;2023-08-08T05:28:07;99955.75;;;13.18;92.06
66681;BME280;53575;51.366;12.350;2023-08-08T05:30:33;99951.47;;;13.14;92.26
66681;BME280;53575;51.366;12.350;2023-08-08T05:32:58;99942.53;;;13.25;91.39
66681;BME280;53575;51.366;12.350;2023-08-08T05:35:24;99938.16;;;13.22;91.72
66681;BME280;53575;51.366;12.350;2023-08-08T05:37:49;99945.16;;;13.23;91.00
66681;BME280;53575;51.366;12.350;2023-08-08T05:40:14;99936.38;;;13.26;91.16
66681;BME280;53575;51.366;12.350;2023-08-08T05:42:40;99940.53;;;13.34;90.13
66681;BME280;53575;51.366;12.350;2023-08-08T05:45:06;99940.59;;;13.33;90.58
66681;BME280;53575;51.366;12.350;2023-08-08T05:47:32;99942.53;;;13.25;90.46
66681;BME280;53575;51.366;12.350;2023-08-08T05:49:57;99936.25;;;13.30;90.80
66681;BME280;53575;51.366;12.350;2023-08-08T05:52:22;99937.97;;;13.31;90.47
66681;BME280;53575;51.366;12.350;2023-08-08T05:54:48;99938.59;;;13.43;89.95
66681;BME280;53575;51.366;12.350;2023-08-08T05:57:13;99937.72;;;13.42;89.93
66681;BME280;53575;51.366;12.350;2023-08-08T05:59:39;99953.22;;;13.53;89.24
66681;BME280;53575;51.366;12.350;2023-08-08T06:02:04;99960.19;;;13.54;88.63
66681;BME280;53575;51.366;12.350;2023-08-08T06:04:30;99960.84;;;13.63;88.01
66681;BME280;53575;51.366;12.350;2023-08-08T06:06:55;99947.34;;;13.77;88.12
66681;BME280;53575;51.366;12.350;2023-08-08T06:09:20;99944.72;;;13.77;87.65
66681;BME280;53575;51.366;12.350;2023-08-08T06:11:46;99949.78;;;13.86;87.42
66681;BME280;53575;51.366;12.350;2023-08-08T06:14:12;99946.88;;;13.97;86.48
66681;BME280;53575;51.366;12.350;2023-08-08T06:16:37;99963.25;;;14.07;86.55
66681;BME280;53575;51.366;12.350;2023-08-08T06:19:03;99953.59;;;14.07;85.74
66681;BME280;53575;51.366;12.350;2023-08-08T06:21:29;99951.72;;;14.12;85.26
66681;BME280;53575;51.366;12.350;2023-08-08T06:23:54;99946.28;;;14.20;85.48
66681;BME280;53575;51.366;12.350;2023-08-08T06:26:21;99949.91;;;14.14;85.72
66681;BME280;53575;51.366;12.350;2023-08-08T06:28:47;99945.63;;;14.10;85.99
66681;BME280;53575;51.366;12.350;2023-08-08T06:31:13;99944.78;;;14.10;86.50
66681;BME280;53575;51.366;12.350;2023-08-08T06:33:38;99942.03;;;14.14;86.65
66681;BME280;53575;51.366;12.350;2023-08-08T06:36:04;99939.06;;;14.27;85.88
66681;BME280;53575;51.366;12.350;2023-08-08T06:38:30;99942.44;;;14.32;86.22
66681;BME280;53575;51.366;12.350;2023-08-08T06:41:02;99935.28;;;14.37;85.69
66681;BME280;53575;51.366;12.350;2023-08-08T06:43:27;99940.38;;;14.43;85.83
66681;BME280;53575;51.366;12.350;2023-08-08T06:45:53;99949.06;;;14.45;85.39
66681;BME280;53575;51.366;12.350;2023-08-08T06:48:18;99948.44;;;14.37;85.26
66681;BME280;53575;51.366;12.350;2023-08-08T06:50:43;99955.31;;;14.41;86.05
66681;BME280;53575;51.366;12.350;2023-08-08T06:53:09;99949.03;;;14.47;86.14
66681;BME280;53575;51.366;12.350;2023-08-08T06:55:34;99949.59;;;14.59;86.32
66681;BME280;53575;51.366;12.350;2023-08-08T06:58:00;99944.03;;;14.70;85.85
66681;BME280;53575;51.366;12.350;2023-08-08T07:00:25;99953.97;;;14.90;84.72
66681;BME280;53575;51.366;12.350;2023-08-08T07:02:52;99945.84;;;14.98;84.45
66681;BME280;53575;51.366;12.350;2023-08-08T07:05:18;99942.97;;;15.05;84.56
66681;BME280;53575;51.366;12.350;2023-08-08T07:07:43;99947.63;;;15.25;84.15
66681;BME280;53575;51.366;12.350;2023-08-08T07:10:10;99947.75;;;15.21;83.21
66681;BME280;53575;51.366;12.350;2023-08-08T07:12:37;99939.16;;;15.16;84.11
66681;BME280;53575;51.366;12.350;2023-08-08T07:15:02;99943.06;;;15.02;83.72
66681;BME280;53575;51.366;12.350;2023-08-08T07:17:28;99942.50;;;14.93;85.16
66681;BME280;53575;51.366;12.350;2023-08-08T07:19:53;99953.03;;;14.91;85.42
66681;BME280;53575;51.366;12.350;2023-08-08T07:22:19;99953.31;;;14.82;85.19
66681;BME280;53575;51.366;12.350;2023-08-08T07:24:44;99957.81;;;14.78;85.09
66681;BME280;53575;51.366;12.350;2023-08-08T07:27:09;99960.59;;;14.72;84.99
66681;BME280;53575;51.366;12.350;2023-08-08T07:29:35;99950.88;;;14.76;85.37
66681;BME280;53575;51.366;12.350;2023-08-08T07:32:03;99956.47;;;14.63;85.08
66681;BME280;53575;51.366;12.350;2023-08-08T07:34:29;99957.41;;;14.62;84.98
66681;BME280;53575;51.366;12.350;2023-08-08T07:36:54;99948.13;;;14.49;85.94
66681;BME280;53575;51.366;12.350;2023-08-08T07:39:21;99949.72;;;14.55;86.07
66681;BME280;53575;51.366;12.350;2023-08-08T07:41:46;99955.91;;;14.54;86.20
66681;BME280;53575;51.366;12.350;2023-08-08T07:44:12;99941.09;;;14.48;86.68
66681;BME280;53575;51.366;12.350;2023-08-08T07:46:37;99932.56;;;14.40;87.67
66681;BME280;53575;51.366;12.350;2023-08-08T07:49:03;99928.25;;;14.37;88.08
66681;BME280;53575;51.366;12.350;2023-08-08T07:51:30;99929.81;;;14.45;88.37
66681;BME280;53575;51.366;12.350;2023-08-08T07:53:56;99932.88;;;14.62;88.36
66681;BME280;53575;51.366;12.350;2023-08-08T07:56:21;99942.41;;;14.65;89.22
66681;BME280;53575;51.366;12.350;2023-08-08T07:58:47;99950.88;;;14.76;88.90
66681;BME280;53575;51.366;12.350;2023-08-08T08:01:12;99947.50;;;14.71;88.88
66681;BME280;53575;51.366;12.350;2023-08-08T08:03:39;99941.25;;;14.75;89.05
66681;BME280;53575;51.366;12.350;2023-08-08T08:06:05;99945.44;;;14.82;88.51
66681;BME280;53575;51.366;12.350;2023-08-08T08:08:30;99946.59;;;14.72;87.95
66681;BME280;53575;51.366;12.350;2023-08-08T08:10:56;99953.31;;;14.82;87.98
66681;BME280;53575;51.366;12.350;2023-08-08T08:13:21;99953.34;;;14.80;87.49
66681;BME280;53575;51.366;12.350;2023-08-08T08:15:47;99954.09;;;14.85;87.49
66681;BME280;53575;51.366;12.350;2023-08-08T08:18:13;99960.34;;;14.81;87.42
66681;BME280;53575;51.366;12.350;2023-08-08T08:20:39;99949.06;;;14.78;86.77
66681;BME280;53575;51.366;12.350;2023-08-08T08:23:05;99954.28;;;14.79;86.49
66681;BME280;53575;51.366;12.350;2023-08-08T08:25:30;99947.22;;;14.80;86.14
66681;BME280;53575;51.366;12.350;2023-08-08T08:27:57;99944.81;;;14.74;87.55
66681;BME280;53575;51.366;12.350;2023-08-08T08:30:22;99946.38;;;14.79;87.01
66681;BME280;53575;51.366;12.350;2023-08-08T08:32:50;99956.09;;;14.77;87.46
66681;BME280;53575;51.366;12.350;2023-08-08T08:35:16;99952.59;;;14.77;87.72
66681;BME280;53575;51.366;12.350;2023-08-08T08:37:42;99950.06;;;14.74;87.75
66681;BME280;53575;51.366;12.350;2023-08-08T08:40:08;99960.31;;;14.83;87.46
66681;BME280;53575;51.366;12.350;2023-08-08T08:42:34;99952.41;;;14.83;87.99
66681;BME280;53575;51.366;12.350;2023-08-08T08:45:02;99958.59;;;14.82;87.71
66681;BME280;53575;51.366;12.350;2023-08-08T08:47:29;99949.88;;;14.80;88.59
66681;BME280;53575;51.366;12.350;2023-08-08T08:49:57;99946.28;;;14.82;90.03
66681;BME280;53575;51.366;12.350;2023-08-08T08:52:23;99946.44;;;14.78;91.11
66681;BME280;53575;51.366;12.350;2023-08-08T08:54:50;99938.78;;;14.69;92.22
66681;BME280;53575;51.366;12.350;2023-08-08T08:57:16;99936.31;;;14.64;93.14
66681;BME280;53575;51.366;12.350;2023-08-08T08:59:41;99945.88;;;14.67;93.06
66681;BME280;53575;51.366;12.350;2023-08-08T09:02:07;99952.16;;;14.61;93.10
66681;BME280;53575;51.366;12.350;2023-08-08T09:04:33;99949.31;;;14.69;93.81
66681;BME280;53575;51.366;12.350;2023-08-08T09:07:00;99949.50;;;14.62;93.85
66681;BME280;53575;51.366;12.350;2023-08-08T09:09:26;99947.56;;;14.69;93.92
66681;BME280;53575;51.366;12.350;2023-08-08T09:11:52;99951.16;;;14.65;93.36
66681;BME280;53575;51.366;12.350;2023-08-08T09:14:22;99951.09;;;14.68;92.64
66681;BME280;53575;51.366;12.350;2023-08-08T09:16:49;99950.78;;;14.79;93.17
66681;BME280;53575;51.366;12.350;2023-08-08T09:19:16;99940.88;;;14.89;92.90
66681;BME280;53575;51.366;12.350;2023-08-08T09:21:43;99934.06;;;14.81;91.75
66681;BME280;53575;51.366;12.350;2023-08-08T09:24:08;99937.47;;;14.83;91.17
66681;BME280;53575;51.366;12.350;2023-08-08T09:26:34;99933.84;;;14.87;92.05
66681;BME280;53575;51.366;12.350;2023-08-08T09:29:01;99947.44;;;15.03;91.65
66681;BME280;53575;51.366;12.350;2023-08-08T09:31:26;99945.84;;;15.26;92.09
66681;BME280;53575;51.366;12.350;2023-08-08T09:33:58;99939.91;;;15.47;92.05
66681;BME280;53575;51.366;12.350;2023-08-08T09:36:24;99937.06;;;15.81;90.31
66681;BME280;53575;51.366;12.350;2023-08-08T09:38:51;99926.34;;;15.86;89.85
66681;BME280;53575;51.366;12.350;2023-08-08T09:41:16;99921.19;;;15.83;89.96
66681;BME280;53575;51.366;12.350;2023-08-08T09:43:44;99919.72;;;16.01;87.73
66681;BME280;53575;51.366;12.350;2023-08-08T09:46:10;99922.34;;;16.26;86.33
66681;BME280;53575;51.366;12.350;2023-08-08T09:48:38;99927.88;;;16.43;85.16
66681;BME280;53575;51.366;12.350;2023-08-08T09:51:06;99912.97;;;16.66;83.51
66681;BME280;53575;51.366;12.350;2023-08-08T09:53:31;99915.97;;;16.80;81.81
66681;BME280;53575;51.366;12.350;2023-08-08T09:55:58;99914.34;;;16.99;80.52
66681;BME280;53575;51.366;12.350;2023-08-08T09:58:23;99911.03;;;16.94;78.21
66681;BME280;53575;51.366;12.350;2023-08-08T10:00:50;99902.88;;;17.00;77.86
66681;BME280;53575;51.366;12.350;2023-08-08T10:03:19;99909.53;;;17.11;78.41
66681;BME280;53575;51.366;12.350;2023-08-08T10:05:45;99912.03;;;17.14;76.77
66681;BME280;53575;51.366;12.350;2023-08-08T10:08:11;99903.38;;;17.32;74.93
66681;BME280;53575;51.366;12.350;2023-08-08T10:10:37;99903.72;;;17.67;74.74
66681;BME280;53575;51.366;12.350;2023-08-08T10:13:03;99908.25;;;17.85;72.25
66681;BME280;53575;51.366;12.350;2023-08-08T10:15:29;99907.50;;;17.82;71.04
66681;BME280;53575;51.366;12.350;2023-08-08T10:17:58;99896.97;;;18.02;70.30
66681;BME280;53575;51.366;12.350;2023-08-08T10:20:26;99896.28;;;18.17;69.12
66681;BME280;53575;51.366;12.350;2023-08-08T10:22:53;99916.44;;;17.99;69.91
66681;BME280;53575;51.366;12.350;2023-08-08T10:27:45;99923.91;;;17.25;72.06
66681;BME280;53575;51.366;12.350;2023-08-08T10:30:11;99910.31;;;17.13;71.84
66681;BME280;53575;51.366;12.350;2023-08-08T10:32:45;99917.31;;;17.14;73.58
66681;BME280;53575;51.366;12.350;2023-08-08T10:35:14;99919.97;;;17.14;72.93
66681;BME280;53575;51.366;12.350;2023-08-08T10:37:40;99925.41;;;17.31;72.81
66681;BME280;53575;51.366;12.350;2023-08-08T10:40:07;99915.78;;;17.30;71.68
66681;BME280;53575;51.366;12.350;2023-08-08T10:42:41;99911.97;;;17.37;71.57
66681;BME280;53575;51.366;12.350;2023-08-08T10:45:10;99910.28;;;17.36;71.71
66681;BME280;53575;51.366;12.350;2023-08-08T10:47:37;99915.34;;;17.41;71.82
66681;BME280;53575;51.366;12.350;2023-08-08T10:50:16;99918.50;;;17.28;70.26
66681;BME280;53575;51.366;12.350;2023-08-08T10:52:52;99909.97;;;17.22;71.97
66681;BME280;53575;51.366;12.350;2023-08-08T10:55:25;99912.16;;;17.33;72.50
66681;BME280;53575;51.366;12.350;2023-08-08T10:57:58;99895.00;;;17.43;70.25
66681;BME280;53575;51.366;12.350;2023-08-08T11:00:28;99899.38;;;17.44;69.97
66681;BME280;53575;51.366;12.350;2023-08-08T11:02:55;99901.09;;;17.67;70.25
66681;BME280;53575;51.366;12.350;2023-08-08T11:05:22;99890.88;;;17.80;70.40
66681;BME280;53575;51.366;12.350;2023-08-08T11:07:47;99891.16;;;17.94;69.82
66681;BME280;53575;51.366;12.350;2023-08-08T11:10:13;99892.97;;;17.92;68.44
66681;BME280;53575;51.366;12.350;2023-08-08T11:12:38;99904.22;;;17.76;68.81
66681;BME280;53575;51.366;12.350;2023-08-08T11:15:04;99884.72;;;17.79;67.23
66681;BME280;53575;51.366;12.350;2023-08-08T11:17:30;99865.44;;;17.97;67.87
66681;BME280;53575;51.366;12.350;2023-08-08T11:19:55;99884.22;;;18.31;66.64
66681;BME280;53575;51.366;12.350;2023-08-08T11:22:21;99854.66;;;18.41;65.63
66681;BME280;53575;51.366;12.350;2023-08-08T11:24:48;99863.31;;;18.64;65.82
66681;BME280;53575;51.366;12.350;2023-08-08T11:27:15;99839.13;;;18.52;65.82
66681;BME280;53575;51.366;12.350;2023-08-08T11:29:41;99850.97;;;18.83;66.63
66681;BME280;53575;51.366;12.350;2023-08-08T11:32:13;99860.41;;;18.89;65.91
66681;BME280;53575;51.366;12.350;2023-08-08T11:34:39;99848.31;;;18.83;64.00
66681;BME280;53575;51.366;12.350;2023-08-08T11:37:04;99858.53;;;18.91;64.46
66681;BME280;53575;51.366;12.350;2023-08-08T11:39:30;99850.47;;;18.75;64.83
66681;BME280;53575;51.366;12.350;2023-08-08T11:41:55;99848.44;;;18.61;64.98
66681;BME280;53575;51.366;12.350;2023-08-08T11:44:21;99835.84;;;18.47;64.49
66681;BME280;53575;51.366;12.350;2023-08-08T11:46:46;99830.63;;;18.84;65.40
66681;BME280;53575;51.366;12.350;2023-08-08T11:49:14;99822.09;;;19.32;64.15
66681;BME280;53575;51.366;12.350;2023-08-08T11:51:43;99833.53;;;19.33;63.28
66681;BME280;53575;51.366;12.350;2023-08-08T11:54:08;99828.78;;;19.22;62.30
66681;BME280;53575;51.366;12.350;2023-08-08T11:56:34;99835.88;;;19.21;62.07
66681;BME280;53575;51.366;12.350;2023-08-08T11:59:01;99822.53;;;19.06;60.38
66681;BME280;53575;51.366;12.350;2023-08-08T12:01:27;99830.78;;;18.81;62.03
66681;BME280;53575;51.366;12.350;2023-08-08T12:03:53;99838.69;;;18.62;61.81
66681;BME280;53575;51.366;12.350;2023-08-08T12:06:19;99830.34;;;18.52;64.77
66681;BME280;53575;51.366;12.350;2023-08-08T12:08:46;99825.53;;;18.41;64.38
66681;BME280;53575;51.366;12.350;2023-08-08T12:11:12;99814.34;;;18.55;64.50
66681;BME280;53575;51.366;12.350;2023-08-08T12:13:40;99835.66;;;18.71;64.36
66681;BME280;53575;51.366;12.350;2023-08-08T12:16:08;99807.72;;;19.02;62.32
66681;BME280;53575;51.366;12.350;2023-08-08T12:18:35;99812.06;;;19.39;60.17
66681;BME280;53575;51.366;12.350;2023-08-08T12:21:00;99805.72;;;19.93;59.08
66681;BME280;53575;51.366;12.350;2023-08-08T12:23:26;99800.69;;;20.05;57.72
66681;BME280;53575;51.366;12.350;2023-08-08T12:25:52;99793.28;;;20.11;58.53
66681;BME280;53575;51.366;12.350;2023-08-08T12:28:18;99788.16;;;20.24;57.90
66681;BME280;53575;51.366;12.350;2023-08-08T12:30:44;99783.88;;;20.37;58.16
66681;BME280;53575;51.366;12.350;2023-08-08T12:33:09;99782.84;;;20.57;55.86
66681;BME280;53575;51.366;12.350;2023-08-08T12:35:35;99785.88;;;20.81;53.73
66681;BME280;53575;51.366;12.350;2023-08-08T12:38:00;99774.16;;;20.69;53.44
66681;BME280;53575;51.366;12.350;2023-08-08T12:40:25;99797.97;;;20.71;54.55
66681;BME280;53575;51.366;12.350;2023-08-08T12:42:51;99785.50;;;20.24;53.01
66681;BME280;53575;51.366;12.350;2023-08-08T12:45:16;99790.41;;;19.99;54.55